Time;durP1;ratioP1;P1;durP2;ratioP2;P2;SDS_P1;SDS_P2;PMS_P1;PMS_P2;Temp;Humidity;BMP_temperature;BMP_pressure;BME280_temperature;BME280_humidity;BME280_pressure;Samples;Min_cycle;Max_cycle;Signal;HPM_P1;HPM_P2
2023/03/07 00:01:03;;;;;;;11.77;5.05;;;4.20;99.90;;;;;;4979148;28;20495;-76
2023/03/07 00:03:29;;;;;;;8.45;5.07;;;4.20;99.90;;;;;;4986198;28;20073;-75
2023/03/07 00:06:10;;;;;;;15.80;5.63;;;4.20;99.90;;;;;;4983328;28;20035;-76
2023/03/07 00:08:36;;;;;;;12.13;5.33;;;4.20;99.90;;;;;;4992472;28;20018;-76
2023/03/07 00:11:06;;;;;;;12.75;5.85;;;4.20;99.90;;;;;;4967784;28;20110;-75
2023/03/07 00:13:33;;;;;;;11.35;5.35;;;4.20;99.90;;;;;;4992752;28;20026;-76
2023/03/07 00:16:06;;;;;;;13.05;5.45;;;4.10;99.90;;;;;;4987448;28;20031;-75
2023/03/07 00:18:33;;;;;;;15.23;6.00;;;4.10;99.90;;;;;;4985714;28;20121;-76
2023/03/07 00:21:01;;;;;;;12.05;4.80;;;4.10;99.90;;;;;;4990804;28;20027;-76
2023/03/07 00:23:27;;;;;;;14.50;6.72;;;4.10;99.90;;;;;;4984471;28;20666;-76
2023/03/07 00:26:23;;;;;;;27.33;6.43;;;4.10;99.90;;;;;;4990799;28;20130;-75
2023/03/07 00:28:51;;;;;;;13.82;5.70;;;4.10;99.90;;;;;;4978606;28;20111;-76
2023/03/07 00:31:19;;;;;;;15.48;5.53;;;4.10;99.90;;;;;;4954864;28;20031;-76
2023/03/07 00:33:45;;;;;;;15.65;6.18;;;4.10;99.90;;;;;;4982125;28;20030;-76
2023/03/07 00:36:17;;;;;;;17.42;6.32;;;4.10;99.90;;;;;;4971591;28;20035;-75
2023/03/07 00:38:44;;;;;;;12.05;5.90;;;4.00;99.90;;;;;;4976228;28;20503;-76
2023/03/07 00:41:17;;;;;;;18.98;6.40;;;4.00;99.90;;;;;;4991589;28;20038;-76
2023/03/07 00:43:45;;;;;;;10.85;5.32;;;4.00;99.90;;;;;;4976400;28;20026;-75
2023/03/07 00:46:15;;;;;;;9.32;4.57;;;4.10;99.90;;;;;;4991240;28;20027;-75
2023/03/07 00:48:40;;;;;;;9.32;4.40;;;4.10;99.90;;;;;;4977010;28;20023;-76
2023/03/07 00:51:09;;;;;;;15.55;5.05;;;4.00;99.90;;;;;;4991062;28;20041;-76
2023/03/07 00:53:36;;;;;;;14.82;6.80;;;4.10;99.90;;;;;;4971087;28;20062;-76
2023/03/07 00:56:11;;;;;;;11.43;5.50;;;4.00;99.90;;;;;;4986152;28;20530;-76
2023/03/07 00:58:37;;;;;;;14.85;6.13;;;4.10;99.90;;;;;;4987731;28;20651;-76
2023/03/07 01:01:06;;;;;;;13.70;5.63;;;4.10;99.90;;;;;;4980398;28;20505;-76
2023/03/07 01:03:33;;;;;;;10.98;4.55;;;4.00;99.90;;;;;;4982611;28;20030;-75
2023/03/07 01:06:07;;;;;;;10.18;5.18;;;4.00;99.90;;;;;;4981203;28;20419;-76
2023/03/07 01:08:34;;;;;;;12.32;4.97;;;4.00;99.90;;;;;;4984538;28;20102;-75
2023/03/07 01:11:02;;;;;;;13.10;5.70;;;4.00;99.90;;;;;;4991640;28;20023;-75
2023/03/07 01:13:29;;;;;;;12.15;6.13;;;4.00;99.90;;;;;;4986373;28;20038;-75
2023/03/07 01:15:55;;;;;;;9.85;4.20;;;4.10;99.90;;;;;;4996240;23;20034;-76
2023/03/07 01:18:21;;;;;;;17.20;5.80;;;4.10;99.90;;;;;;4988945;28;20326;-76
2023/03/07 01:20:47;;;;;;;13.30;4.57;;;4.10;99.90;;;;;;4990870;28;20394;-75
2023/03/07 01:23:13;;;;;;;14.25;5.95;;;4.20;99.90;;;;;;4992225;28;20057;-75
2023/03/07 01:25:41;;;;;;;18.80;7.07;;;4.10;99.90;;;;;;4991838;28;20571;-75
2023/03/07 01:28:11;;;;;;;16.38;6.68;;;4.00;99.90;;;;;;4973994;28;20045;-75
2023/03/07 01:30:37;;;;;;;13.25;5.18;;;4.00;99.90;;;;;;4990423;28;20042;-75
2023/03/07 01:33:03;;;;;;;9.52;5.32;;;4.00;99.90;;;;;;4989667;28;20390;-75
2023/03/07 01:35:35;;;;;;;12.65;5.70;;;4.00;99.90;;;;;;4992354;28;20109;-76
2023/03/07 01:38:00;;;;;;;11.75;5.00;;;4.00;99.90;;;;;;4989316;28;20042;-75
2023/03/07 01:40:26;;;;;;;13.43;6.65;;;4.10;99.90;;;;;;4991686;28;20375;-75
2023/03/07 01:42:52;;;;;;;10.82;5.20;;;4.10;99.90;;;;;;4990147;28;20398;-75
2023/03/07 01:45:33;;;;;;;9.07;3.95;;;4.20;99.90;;;;;;4991045;28;20092;-75
2023/03/07 01:48:00;;;;;;;12.43;5.40;;;4.10;99.90;;;;;;4990313;28;20138;-75
2023/03/07 01:50:26;;;;;;;14.55;5.40;;;4.10;99.90;;;;;;4991532;28;20108;-75
2023/03/07 01:52:59;;;;;;;10.00;4.57;;;4.10;99.90;;;;;;4988217;28;20026;-75
2023/03/07 01:55:34;;;;;;;15.90;6.57;;;4.10;99.90;;;;;;4990533;28;20026;-75
2023/03/07 01:58:07;;;;;;;11.90;5.85;;;4.10;99.90;;;;;;4988497;28;20026;-76
2023/03/07 02:00:37;;;;;;;8.57;3.85;;;4.10;99.90;;;;;;4990254;28;20112;-75
2023/03/07 02:03:08;;;;;;;12.80;6.80;;;4.10;99.90;;;;;;4988812;28;20074;-75
2023/03/07 02:06:00;;;;;;;9.15;5.75;;;4.10;99.90;;;;;;4982368;28;20022;-75
2023/03/07 02:08:29;;;;;;;7.10;3.75;;;4.10;99.90;;;;;;4982164;28;20089;-76
2023/03/07 02:10:55;;;;;;;8.70;5.20;;;4.00;99.90;;;;;;4979382;28;20034;-75
2023/03/07 02:13:20;;;;;;;13.27;4.78;;;4.00;99.90;;;;;;4990446;28;20081;-75
2023/03/07 02:15:49;;;;;;;13.65;5.85;;;4.00;99.90;;;;;;4991301;28;20053;-75
2023/03/07 02:18:20;;;;;;;8.38;4.72;;;4.00;99.90;;;;;;4989073;28;20038;-75
2023/03/07 02:21:11;;;;;;;12.60;5.05;;;4.00;99.90;;;;;;4990143;28;20041;-75
2023/03/07 02:23:42;;;;;;;9.93;6.13;;;4.00;99.90;;;;;;5002623;28;20038;-76
2023/03/07 02:26:28;;;;;;;;;;;3.90;99.90;;;;;;4989476;28;20463;-75
2023/03/07 02:28:55;;;;;;;11.48;4.93;;;3.90;99.90;;;;;;4982839;28;19918;-76
2023/03/07 02:31:22;;;;;;;11.18;4.18;;;3.90;99.90;;;;;;4991299;28;20594;-75
2023/03/07 02:33:48;;;;;;;7.93;4.95;;;3.90;99.90;;;;;;4988464;28;20041;-75
2023/03/07 02:36:21;;;;;;;14.05;5.00;;;3.90;99.90;;;;;;4991189;28;20398;-76
2023/03/07 02:38:49;;;;;;;14.40;5.63;;;3.90;99.90;;;;;;4989156;28;20052;-75
2023/03/07 02:41:21;;;;;;;9.93;4.25;;;3.90;99.90;;;;;;4989953;28;20487;-75
2023/03/07 02:43:47;;;;;;;7.88;4.05;;;3.80;99.90;;;;;;4990294;28;20034;-75
2023/03/07 02:46:13;;;;;;;6.35;2.90;;;3.80;99.90;;;;;;4990886;28;20442;-75
2023/03/07 02:48:38;;;;;;;15.60;5.20;;;3.80;99.90;;;;;;4988334;28;20035;-75
2023/03/07 02:51:04;;;;;;;9.27;4.63;;;3.80;99.90;;;;;;4991048;28;20749;-76
2023/03/07 02:53:30;;;;;;;12.95;4.75;;;3.80;99.90;;;;;;4990289;28;20445;-76
2023/03/07 02:55:56;;;;;;;11.35;5.95;;;3.80;99.90;;;;;;4989984;28;20030;-76
2023/03/07 02:58:22;;;;;;;12.38;5.40;;;3.80;99.90;;;;;;4989689;28;20410;-75
2023/03/07 03:00:47;;;;;;;9.88;5.72;;;3.80;99.90;;;;;;4991006;28;20455;-75
2023/03/07 03:03:13;;;;;;;13.30;6.15;;;3.70;99.90;;;;;;4988961;28;20026;-75
2023/03/07 03:05:39;;;;;;;12.13;4.97;;;3.60;99.90;;;;;;4973396;28;20038;-75
2023/03/07 03:08:05;;;;;;;8.15;3.63;;;3.60;99.90;;;;;;4990201;28;20501;-76
2023/03/07 03:10:31;;;;;;;11.25;4.50;;;3.50;99.90;;;;;;4989738;28;20405;-76
2023/03/07 03:12:57;;;;;;;18.08;5.45;;;3.50;99.90;;;;;;4990333;28;20026;-76
2023/03/07 03:15:23;;;;;;;8.27;4.68;;;3.50;99.90;;;;;;4994782;28;20041;-75
2023/03/07 03:17:51;;;;;;;14.32;4.72;;;3.40;99.90;;;;;;4993692;28;20137;-76
2023/03/07 03:20:18;;;;;;;9.20;4.78;;;3.50;99.90;;;;;;4986400;28;20041;-75
2023/03/07 03:22:43;;;;;;;11.63;5.07;;;3.50;99.90;;;;;;4993683;28;20398;-75
2023/03/07 03:25:13;;;;;;;12.27;4.15;;;3.40;99.90;;;;;;4993288;28;20041;-75
2023/03/07 03:27:39;;;;;;;18.83;4.03;;;3.40;99.90;;;;;;4993656;28;20096;-75
2023/03/07 03:30:08;;;;;;;9.23;5.15;;;3.40;99.90;;;;;;4992931;28;20028;-75
2023/03/07 03:32:37;;;;;;;11.25;5.22;;;3.40;99.90;;;;;;4992296;28;20023;-75
2023/03/07 03:35:04;;;;;;;12.57;5.25;;;3.30;99.90;;;;;;4993290;28;20530;-76
2023/03/07 03:37:31;;;;;;;8.00;5.60;;;3.30;99.90;;;;;;4993721;28;20069;-76
2023/03/07 03:39:57;;;;;;;15.07;6.53;;;3.30;99.90;;;;;;4992734;28;20018;-76
2023/03/07 03:42:23;;;;;;;7.47;3.70;;;3.30;99.90;;;;;;4992414;28;20030;-76
2023/03/07 03:44:49;;;;;;;9.90;5.70;;;3.30;99.90;;;;;;4994327;28;20541;-76
2023/03/07 03:47:15;;;;;;;15.45;4.90;;;3.20;99.90;;;;;;4992200;28;20046;-76
2023/03/07 03:49:41;;;;;;;9.38;4.10;;;3.30;99.90;;;;;;4992839;28;20022;-76
2023/03/07 03:52:08;;;;;;;14.95;6.53;;;3.30;99.90;;;;;;4993477;28;20104;-76
2023/03/07 03:54:34;;;;;;;12.15;5.22;;;3.30;99.90;;;;;;4993981;28;20114;-76
2023/03/07 03:57:00;;;;;;;14.18;5.32;;;3.30;99.90;;;;;;4992437;28;20030;-76
2023/03/07 03:59:26;;;;;;;10.55;3.65;;;3.30;99.90;;;;;;4992716;28;20657;-76
2023/03/07 04:01:53;;;;;;;17.30;4.93;;;3.30;99.90;;;;;;4991581;28;20038;-76
2023/03/07 04:04:20;;;;;;;14.07;6.18;;;3.30;99.90;;;;;;4980781;28;20057;-76
2023/03/07 04:06:47;;;;;;;13.07;6.05;;;3.30;99.90;;;;;;4993140;28;20114;-76
2023/03/07 04:09:13;;;;;;;9.88;4.53;;;3.30;99.90;;;;;;4993148;28;20067;-76
2023/03/07 04:11:38;;;;;;;10.98;4.72;;;3.30;99.90;;;;;;4992365;28;20486;-76
2023/03/07 04:14:04;;;;;;;11.02;4.05;;;3.30;99.90;;;;;;4992514;28;20077;-76
2023/03/07 04:16:30;;;;;;;8.68;5.05;;;3.20;99.90;;;;;;4993462;28;20042;-76
2023/03/07 04:18:57;;;;;;;11.48;4.85;;;3.20;99.90;;;;;;4992209;28;20441;-76
2023/03/07 04:21:22;;;;;;;11.50;5.60;;;3.20;99.90;;;;;;4992235;28;20117;-76
2023/03/07 04:23:49;;;;;;;13.15;5.00;;;3.20;99.90;;;;;;4992105;28;20138;-76
2023/03/07 04:26:15;;;;;;;10.05;4.97;;;3.20;99.90;;;;;;4992347;28;20499;-76
2023/03/07 04:31:09;;;;;;;11.80;5.93;;;3.30;99.90;;;;;;4993225;28;20112;-76
2023/03/07 04:33:35;;;;;;;15.50;6.43;;;3.30;99.90;;;;;;4990573;28;20034;-76
2023/03/07 04:36:01;;;;;;;12.35;5.88;;;3.30;99.90;;;;;;4991693;28;20038;-76
2023/03/07 04:38:26;;;;;;;14.75;5.03;;;3.30;99.90;;;;;;4992327;28;20034;-75
2023/03/07 04:40:52;;;;;;;8.25;4.68;;;3.30;99.90;;;;;;4992707;28;20066;-75
2023/03/07 04:43:19;;;;;;;13.93;5.82;;;3.30;99.90;;;;;;4992486;28;20105;-75
2023/03/07 04:45:45;;;;;;;12.95;5.63;;;3.20;99.90;;;;;;4993038;28;20049;-74
2023/03/07 04:48:10;;;;;;;14.50;5.50;;;3.30;99.90;;;;;;4992026;28;20034;-74
2023/03/07 04:50:36;;;;;;;14.30;5.05;;;3.20;99.90;;;;;;4993051;28;20029;-74
2023/03/07 04:53:02;;;;;;;16.08;5.85;;;3.30;99.90;;;;;;4992206;28;20030;-74
2023/03/07 04:55:27;;;;;;;12.07;5.68;;;3.30;99.90;;;;;;4992554;28;20476;-74
2023/03/07 04:57:53;;;;;;;12.52;6.38;;;3.30;99.90;;;;;;4984102;28;20113;-75
2023/03/07 05:00:19;;;;;;;12.48;5.97;;;3.30;99.90;;;;;;4992616;28;20433;-75
2023/03/07 05:02:47;;;;;;;14.43;5.10;;;3.40;99.90;;;;;;4992248;28;20121;-75
2023/03/07 05:05:13;;;;;;;10.93;5.55;;;3.40;99.90;;;;;;5003612;28;20027;-75
2023/03/07 05:07:38;;;;;;;9.32;5.40;;;3.30;99.90;;;;;;4994859;28;20651;-74
2023/03/07 05:10:05;;;;;;;10.60;5.28;;;3.40;99.90;;;;;;4993559;28;20057;-75
2023/03/07 05:12:30;;;;;;;9.98;4.45;;;3.50;99.90;;;;;;4978958;28;20031;-74
2023/03/07 05:14:56;;;;;;;12.23;6.00;;;3.40;99.90;;;;;;4992242;28;20018;-75
2023/03/07 05:17:22;;;;;;;12.25;5.97;;;3.40;99.90;;;;;;4990923;28;20022;-75
2023/03/07 05:19:48;;;;;;;11.50;5.65;;;3.50;99.90;;;;;;4991835;28;20097;-75
2023/03/07 05:22:13;;;;;;;9.77;5.10;;;3.50;99.90;;;;;;4991447;28;20551;-75
2023/03/07 05:24:39;;;;;;;7.88;4.55;;;3.50;99.90;;;;;;4992153;28;20425;-75
2023/03/07 05:27:05;;;;;;;11.35;4.65;;;3.50;99.90;;;;;;4990419;28;20043;-74
2023/03/07 05:29:30;;;;;;;6.03;4.00;;;3.50;99.90;;;;;;4991355;28;20058;-75
2023/03/07 05:31:57;;;;;;;11.73;5.93;;;3.50;99.90;;;;;;4991636;28;20027;-75
2023/03/07 05:34:23;;;;;;;16.23;6.43;;;3.50;99.90;;;;;;4992102;28;20022;-75
2023/03/07 05:36:49;;;;;;;11.80;5.55;;;3.50;99.90;;;;;;4990692;28;20034;-75
2023/03/07 05:39:15;;;;;;;11.35;5.15;;;3.50;99.90;;;;;;4991432;28;20585;-75
2023/03/07 05:41:40;;;;;;;13.55;4.78;;;3.50;99.90;;;;;;4988718;28;20035;-74
2023/03/07 05:44:06;;;;;;;10.02;4.38;;;3.50;99.90;;;;;;4991441;28;20120;-75
2023/03/07 05:46:32;;;;;;;26.27;6.53;;;3.60;99.90;;;;;;4991604;28;20111;-75
2023/03/07 05:48:58;;;;;;;14.70;4.45;;;3.60;99.90;;;;;;4988678;28;20621;-75
2023/03/07 05:51:24;;;;;;;14.25;5.10;;;3.60;99.90;;;;;;4988062;28;20197;-75
2023/03/07 05:53:49;;;;;;;8.65;5.03;;;3.50;99.90;;;;;;4984779;28;20038;-75
2023/03/07 05:56:15;;;;;;;7.45;4.10;;;3.50;99.90;;;;;;5006611;28;20042;-75
2023/03/07 05:58:41;;;;;;;10.05;4.80;;;3.50;99.90;;;;;;4990222;28;20022;-76
2023/03/07 06:01:07;;;;;;;10.98;4.35;;;3.50;99.90;;;;;;4991414;28;20034;-76
2023/03/07 06:03:33;;;;;;;13.63;4.88;;;3.50;99.90;;;;;;4989842;28;20026;-75
2023/03/07 06:05:58;;;;;;;9.52;3.85;;;3.50;99.90;;;;;;4989889;28;20410;-76
2023/03/07 06:08:24;;;;;;;12.75;4.63;;;3.50;99.90;;;;;;4989943;28;20034;-76
2023/03/07 06:10:54;;;;;;;8.10;3.72;;;3.50;99.90;;;;;;4990989;28;20494;-75
2023/03/07 06:13:22;;;;;;;10.35;4.15;;;3.50;99.90;;;;;;4978173;28;20046;-75
2023/03/07 06:15:53;;;;;;;24.60;4.82;;;3.50;99.90;;;;;;4991207;28;20030;-75
2023/03/07 06:18:21;;;;;;;11.15;4.07;;;3.50;99.90;;;;;;4983723;28;20038;-75
2023/03/07 06:21:02;;;;;;;6.05;2.47;;;3.50;99.90;;;;;;4987727;28;20034;-75
2023/03/07 06:23:32;;;;;;;12.68;4.75;;;3.50;99.90;;;;;;5004697;28;20037;-75
2023/03/07 06:25:58;;;;;;;7.45;4.07;;;3.60;99.90;;;;;;4978744;28;20034;-75
2023/03/07 06:28:25;;;;;;;11.02;4.20;;;3.60;99.90;;;;;;4983989;28;20100;-75
2023/03/07 06:30:51;;;;;;;7.80;4.10;;;3.60;99.90;;;;;;4992394;28;20037;-75
2023/03/07 06:33:17;;;;;;;13.95;4.60;;;3.70;99.90;;;;;;4990564;28;20026;-75
2023/03/07 06:35:43;;;;;;;11.98;5.10;;;3.70;99.90;;;;;;4992286;28;20050;-76
2023/03/07 06:38:10;;;;;;;8.88;4.22;;;3.80;99.90;;;;;;4988888;28;20037;-75
2023/03/07 06:40:37;;;;;;;8.27;3.17;;;3.80;99.90;;;;;;4990513;28;20037;-75
2023/03/07 06:43:03;;;;;;;6.28;3.00;;;3.90;99.90;;;;;;4991523;28;20032;-75
2023/03/07 06:45:28;;;;;;;9.85;5.00;;;4.00;99.90;;;;;;4986777;28;20145;-76
2023/03/07 06:47:54;;;;;;;7.63;3.88;;;4.00;99.90;;;;;;4992588;28;20045;-75
2023/03/07 06:50:20;;;;;;;8.48;3.85;;;4.00;99.90;;;;;;4996616;28;20034;-73
2023/03/07 06:52:48;;;;;;;10.68;3.60;;;4.00;99.90;;;;;;4998070;28;20034;-73
2023/03/07 06:55:14;;;;;;;10.02;4.75;;;4.10;99.90;;;;;;4998955;28;20034;-74
2023/03/07 06:57:41;;;;;;;8.63;4.57;;;4.10;99.90;;;;;;4996479;28;20030;-74
2023/03/07 07:00:08;;;;;;;9.35;3.45;;;4.10;99.90;;;;;;4997137;28;20395;-75
2023/03/07 07:02:34;;;;;;;9.98;4.43;;;4.10;99.90;;;;;;4993412;28;20418;-75
2023/03/07 07:05:01;;;;;;;11.02;4.75;;;4.20;99.90;;;;;;4997788;28;20120;-74
2023/03/07 07:07:28;;;;;;;10.43;4.20;;;4.20;99.90;;;;;;4996301;28;20030;-74
2023/03/07 07:09:54;;;;;;;11.20;4.50;;;4.20;99.90;;;;;;4995527;28;20022;-75
2023/03/07 07:12:20;;;;;;;7.57;2.83;;;4.20;99.90;;;;;;4996273;28;20049;-75
2023/03/07 07:14:46;;;;;;;7.10;3.75;;;4.30;99.90;;;;;;4997003;28;20428;-74
2023/03/07 07:17:12;;;;;;;7.38;4.10;;;4.30;99.90;;;;;;5009281;23;20134;-75
2023/03/07 07:19:38;;;;;;;7.40;4.25;;;4.30;99.90;;;;;;4993816;28;20030;-74
2023/03/07 07:22:05;;;;;;;6.70;3.67;;;4.30;99.90;;;;;;4995409;28;20049;-75
2023/03/07 07:24:30;;;;;;;10.38;4.15;;;4.20;99.90;;;;;;4996800;28;20034;-76
2023/03/07 07:26:56;;;;;;;8.82;4.15;;;4.30;99.90;;;;;;4995978;28;20039;-74
2023/03/07 07:29:23;;;;;;;13.65;3.33;;;4.30;99.90;;;;;;4990471;28;20133;-75
2023/03/07 07:31:48;;;;;;;5.15;3.33;;;4.40;99.90;;;;;;4990496;28;20034;-75
2023/03/07 07:34:14;;;;;;;7.32;4.32;;;4.50;99.90;;;;;;4994746;28;20092;-76
2023/03/07 07:36:40;;;;;;;23.88;5.32;;;4.60;99.90;;;;;;4994893;28;20034;-77
2023/03/07 07:39:08;;;;;;;6.88;3.22;;;4.60;99.90;;;;;;4996673;28;20506;-76
2023/03/07 07:41:34;;;;;;;8.68;3.47;;;4.70;99.90;;;;;;4993046;28;20047;-76
2023/03/07 07:43:59;;;;;;;13.25;3.90;;;4.70;99.90;;;;;;4994596;28;20383;-76
2023/03/07 07:46:29;;;;;;;10.05;4.35;;;4.70;99.90;;;;;;4996444;28;20656;-76
2023/03/07 07:48:55;;;;;;;8.73;5.00;;;4.70;99.90;;;;;;4999374;28;20034;-76
2023/03/07 07:51:21;;;;;;;9.30;4.35;;;4.80;99.90;;;;;;4993178;28;20076;-76
2023/03/07 07:53:47;;;;;;;9.27;3.63;;;4.80;99.90;;;;;;4992574;28;20034;-76
2023/03/07 07:56:13;;;;;;;8.43;3.47;;;4.90;99.90;;;;;;4995904;28;20850;-76
2023/03/07 07:58:39;;;;;;;9.73;4.40;;;4.90;99.90;;;;;;4990334;28;20061;-76
2023/03/07 08:01:31;;;;;;;10.57;3.25;;;4.90;99.90;;;;;;4993166;28;20070;-75
2023/03/07 08:03:57;;;;;;;10.80;4.13;;;4.90;99.90;;;;;;4979350;28;20122;-76
2023/03/07 08:06:26;;;;;;;6.40;3.45;;;4.90;99.90;;;;;;4992506;28;20101;-76
2023/03/07 08:08:53;;;;;;;12.85;3.88;;;4.90;99.90;;;;;;4993285;28;20030;-76
2023/03/07 08:11:20;;;;;;;7.57;3.50;;;5.00;99.90;;;;;;4992536;28;20026;-75
2023/03/07 08:13:46;;;;;;;11.35;3.05;;;5.00;99.90;;;;;;4993204;28;20022;-76
2023/03/07 08:16:16;;;;;;;8.30;3.67;;;4.90;99.90;;;;;;4992911;28;20030;-75
2023/03/07 08:18:46;;;;;;;11.63;3.33;;;5.00;99.90;;;;;;4992997;28;20034;-76
2023/03/07 08:21:12;;;;;;;6.00;3.35;;;5.00;99.90;;;;;;4989669;28;20039;-75
2023/03/07 08:23:38;;;;;;;7.30;3.22;;;5.10;99.90;;;;;;4993232;28;20720;-76
2023/03/07 08:26:08;;;;;;;10.32;3.72;;;5.20;99.90;;;;;;4991884;28;20062;-76
2023/03/07 08:28:36;;;;;;;8.10;3.53;;;5.30;99.90;;;;;;4999584;28;20015;-76
2023/03/07 08:31:22;;;;;;;10.13;3.83;;;5.20;99.90;;;;;;4990973;28;20072;-75
2023/03/07 08:33:48;;;;;;;9.65;3.30;;;5.30;99.90;;;;;;4992888;28;20022;-74
2023/03/07 08:36:15;;;;;;;7.40;3.15;;;5.30;99.90;;;;;;4991629;28;20395;-75
2023/03/07 08:38:41;;;;;;;10.48;3.83;;;5.20;99.90;;;;;;4992573;28;20037;-76
2023/03/07 08:41:08;;;;;;;6.20;2.85;;;5.30;99.90;;;;;;4989640;28;20101;-76
2023/03/07 08:43:36;;;;;;;7.32;3.55;;;5.30;99.90;;;;;;4992733;28;20065;-76
2023/03/07 08:46:03;;;;;;;11.05;3.35;;;5.30;99.90;;;;;;4989967;28;20070;-76
2023/03/07 08:48:29;;;;;;;8.25;3.80;;;5.40;99.90;;;;;;4992547;28;20453;-76
2023/03/07 08:50:55;;;;;;;6.68;3.30;;;5.40;99.90;;;;;;4989924;28;20030;-76
2023/03/07 08:53:21;;;;;;;10.75;4.10;;;5.30;99.90;;;;;;4988484;28;20390;-76
2023/03/07 08:55:47;;;;;;;9.25;4.28;;;5.50;99.90;;;;;;4991712;28;20137;-76
2023/03/07 08:58:13;;;;;;;9.63;4.68;;;5.50;99.90;;;;;;4991090;28;20430;-76
2023/03/07 09:00:39;;;;;;;6.10;2.58;;;5.60;99.90;;;;;;4991139;28;20034;-75
2023/03/07 09:03:06;;;;;;;17.02;4.70;;;5.70;99.90;;;;;;4990990;28;20030;-75
2023/03/07 09:05:35;;;;;;;7.70;3.63;;;5.70;99.90;;;;;;4990293;28;20061;-76
2023/03/07 09:08:02;;;;;;;5.93;3.00;;;5.80;99.90;;;;;;4989102;28;20078;-76
2023/03/07 09:10:28;;;;;;;9.75;3.20;;;5.90;99.90;;;;;;4990144;28;20025;-76
2023/03/07 09:12:54;;;;;;;8.02;3.95;;;5.90;99.90;;;;;;4989293;28;20034;-76
2023/03/07 09:15:21;;;;;;;6.82;3.55;;;6.00;99.90;;;;;;4991077;28;20114;-76
2023/03/07 09:17:47;;;;;;;8.98;3.90;;;6.10;99.90;;;;;;4991668;28;20034;-76
2023/03/07 09:20:15;;;;;;;11.40;4.68;;;6.20;99.90;;;;;;4992075;28;20068;-77
2023/03/07 09:22:41;;;;;;;6.60;3.80;;;6.10;99.90;;;;;;5000824;28;20038;-76
2023/03/07 09:25:08;;;;;;;7.72;3.30;;;6.30;99.90;;;;;;4992164;28;20113;-77
2023/03/07 09:27:34;;;;;;;8.57;3.40;;;6.40;99.90;;;;;;4997391;28;20060;-76
2023/03/07 09:30:00;;;;;;;6.30;3.08;;;6.40;99.90;;;;;;5004448;28;20054;-76
2023/03/07 09:32:25;;;;;;;6.35;2.70;;;6.30;99.90;;;;;;4989471;28;20682;-76
2023/03/07 09:34:52;;;;;;;6.15;2.75;;;6.40;99.90;;;;;;4991941;28;20028;-76
2023/03/07 09:37:18;;;;;;;6.78;2.67;;;6.40;99.90;;;;;;4991324;28;20551;-75
2023/03/07 09:39:44;;;;;;;7.78;2.72;;;6.50;99.90;;;;;;5002100;28;20096;-75
2023/03/07 09:42:12;;;;;;;11.88;3.38;;;6.70;99.90;;;;;;4990058;28;20089;-75
2023/03/07 09:44:56;;;;;;;9.18;2.72;;;6.60;99.90;;;;;;4992855;28;20041;-75
2023/03/07 09:47:43;;;;;;;8.73;3.08;;;6.80;99.90;;;;;;4984709;28;20030;-76
2023/03/07 09:50:48;;;;;;;5.13;2.70;;;7.10;99.90;;;;;;5004343;28;20034;-76
2023/03/07 09:53:36;;;;;;;6.25;3.15;;;7.20;99.90;;;;;;4998178;28;20426;-76
2023/03/07 09:56:07;;;;;;;7.32;3.20;;;7.50;99.90;;;;;;4990940;28;20041;-76
2023/03/07 09:58:34;;;;;;;;;;;7.90;99.90;;;;;;4991580;28;20372;-75
2023/03/07 10:01:00;;;;;;;7.78;2.88;;;7.90;99.90;;;;;;4988251;28;20381;-75
2023/03/07 10:03:33;;;;;;;9.60;3.28;;;7.90;99.90;;;;;;4991222;28;20041;-76
2023/03/07 10:06:15;;;;;;;23.70;3.30;;;8.20;99.90;;;;;;4989698;28;20042;-76
2023/03/07 10:08:41;;;;;;;10.27;2.53;;;8.40;99.90;;;;;;4990895;28;20037;-75
2023/03/07 10:11:57;;;;;;;8.07;3.33;;;8.00;99.90;;;;;;4988341;28;20031;-76
2023/03/07 10:15:02;;;;;;;14.27;3.65;;;7.80;99.90;;;;;;4923632;29;20051;-76
2023/03/07 10:18:01;;;;;;;6.38;2.20;;;7.60;99.90;;;;;;4987265;28;20036;-76
2023/03/07 10:20:51;;;;;;;8.93;3.88;;;7.50;99.90;;;;;;4971545;28;20035;-77
2023/03/07 10:23:43;;;;;;;3.67;2.00;;;7.50;99.90;;;;;;4982748;28;20582;-77
2023/03/07 10:26:44;;;;;;;12.63;3.30;;;7.30;99.90;;;;;;4972520;28;20365;-77
2023/03/07 10:29:17;;;;;;;4.37;2.23;;;7.40;99.90;;;;;;4966905;28;20062;-77
2023/03/07 10:32:18;;;;;;;10.00;2.70;;;7.40;98.90;;;;;;5002230;28;20313;-76
2023/03/07 10:34:54;;;;;;;4.28;1.83;;;7.40;99.70;;;;;;4986527;28;20034;-77
2023/03/07 10:37:49;;;;;;;4.30;2.08;;;7.40;99.00;;;;;;4996016;28;20116;-77
2023/03/07 10:40:42;;;;;;;7.05;2.58;;;7.30;98.80;;;;;;4990307;28;20061;-76
2023/03/07 10:43:26;;;;;;;4.70;1.80;;;7.40;99.20;;;;;;4988461;28;20590;-76
2023/03/07 10:46:17;;;;;;;4.55;2.80;;;7.60;98.40;;;;;;4989167;28;20165;-77
2023/03/07 10:48:50;;;;;;;8.75;2.75;;;7.40;97.90;;;;;;4997721;28;20027;-76
2023/03/07 10:51:35;;;;;;;6.18;2.90;;;7.50;98.10;;;;;;4991149;28;20616;-75
2023/03/07 10:54:04;;;;;;;6.47;2.58;;;7.50;97.70;;;;;;4997311;28;20034;-79
2023/03/07 10:56:29;;;;;;;6.60;2.15;;;7.40;97.70;;;;;;4985533;28;20035;-77
2023/03/07 10:59:04;;;;;;;13.02;1.88;;;7.50;98.40;;;;;;4989384;28;20033;-78
2023/03/07 11:01:32;;;;;;;3.67;2.17;;;7.50;97.80;;;;;;4993107;28;20030;-76
2023/03/07 11:04:24;;;;;;;4.13;2.35;;;7.60;97.20;;;;;;4990703;28;20030;-80
2023/03/07 11:06:49;;;;;;;6.18;2.47;;;7.70;97.20;;;;;;4985473;28;20034;-78
2023/03/07 11:09:33;;;;;;;6.00;2.25;;;7.60;96.90;;;;;;4990282;28;20035;-80
2023/03/07 11:12:12;;;;;;;8.15;2.35;;;7.50;96.80;;;;;;4990309;28;20056;-81
2023/03/07 11:14:53;;;;;;;5.03;2.28;;;7.60;97.30;;;;;;4990925;28;20030;-83
2023/03/07 11:17:43;;;;;;;3.13;1.80;;;7.60;97.10;;;;;;4990646;28;20092;-85
2023/03/07 11:20:48;;;;;;;8.07;3.00;;;7.70;97.20;;;;;;4997773;28;20046;-80
2023/03/07 11:23:25;;;;;;;5.97;2.63;;;7.70;97.20;;;;;;4970577;28;20466;-81
2023/03/07 11:25:53;;;;;;;5.43;2.50;;;7.80;96.80;;;;;;4985734;28;20508;-78
2023/03/07 11:28:29;;;;;;;4.32;1.92;;;7.60;97.10;;;;;;4982178;28;20088;-77
2023/03/07 11:31:27;;;;;;;7.35;3.72;;;7.80;97.60;;;;;;4990975;28;20035;-77
2023/03/07 11:33:59;;;;;;;12.40;2.85;;;7.90;97.00;;;;;;4986836;28;20101;-79
2023/03/07 11:36:33;;;;;;;4.55;2.40;;;7.80;97.30;;;;;;4981228;28;20042;-76
2023/03/07 11:39:23;;;;;;;15.05;3.65;;;7.80;97.00;;;;;;4985215;28;20026;-59
2023/03/07 11:41:57;;;;;;;3.97;2.20;;;7.70;96.70;;;;;;4988133;28;20398;-73
2023/03/07 11:44:51;;;;;;;8.05;2.75;;;7.60;97.10;;;;;;4985131;28;20037;-73
2023/03/07 11:47:49;;;;;;;9.02;3.08;;;7.60;97.00;;;;;;4994152;28;20050;-76
2023/03/07 11:50:25;;;;;;;12.82;2.70;;;7.60;97.50;;;;;;4993488;28;20023;-74
2023/03/07 11:53:28;;;;;;;5.45;2.20;;;7.60;97.00;;;;;;4996041;28;20061;-74
2023/03/07 11:56:33;;;;;;;4.22;2.00;;;7.60;97.20;;;;;;4990513;28;20041;-75
2023/03/07 11:59:40;;;;;;;6.63;2.70;;;7.50;97.20;;;;;;4994169;28;20034;-73
2023/03/07 12:02:39;;;;;;;11.27;4.35;;;7.50;97.20;;;;;;4992245;28;20034;-75
2023/03/07 12:05:19;;;;;;;4.97;2.22;;;7.50;97.60;;;;;;4993447;28;20120;-74
2023/03/07 12:08:16;;;;;;;9.02;2.08;;;7.60;97.40;;;;;;4993511;28;20031;-74
2023/03/07 12:11:07;;;;;;;6.30;2.03;;;7.70;97.10;;;;;;4982163;28;20038;-76
2023/03/07 12:14:05;;;;;;;3.33;1.65;;;7.60;97.60;;;;;;4991996;28;20032;-74
2023/03/07 12:16:45;;;;;;;6.38;2.60;;;7.60;97.40;;;;;;4972744;28;20058;-74
2023/03/07 12:19:54;;;;;;;5.82;2.28;;;7.60;97.20;;;;;;4991701;28;20042;-74
2023/03/07 12:22:45;;;;;;;7.50;2.30;;;7.60;97.20;;;;;;4985944;28;20041;-75
2023/03/07 12:25:38;;;;;;;7.95;2.58;;;7.60;96.80;;;;;;4988904;28;20045;-77
2023/03/07 12:28:31;;;;;;;3.33;1.23;;;7.60;96.70;;;;;;4988078;28;20035;-74
2023/03/07 12:31:33;;;;;;;5.25;2.53;;;7.60;96.80;;;;;;4998004;28;20041;-74
2023/03/07 12:34:19;;;;;;;6.63;1.90;;;7.70;96.90;;;;;;4988844;28;20050;-76
2023/03/07 12:36:52;;;;;;;5.53;2.55;;;7.70;97.10;;;;;;4979029;28;20045;-71
2023/03/07 12:39:24;;;;;;;2.15;1.20;;;7.80;97.20;;;;;;4975353;28;20054;-71
2023/03/07 12:41:59;;;;;;;;;;;7.80;97.10;;;;;;5001601;28;20113;-70
2023/03/07 12:44:39;;;;;;;4.95;2.25;;;7.90;96.90;;;;;;5005548;28;19917;-74
2023/03/07 12:47:51;;;;;;;4.82;2.55;;;7.90;96.40;;;;;;4983266;28;20121;-73
2023/03/07 12:50:18;;;;;;;;;;;7.90;96.50;;;;;;4992316;28;20217;-76
2023/03/07 12:52:59;;;;;;;18.77;3.40;;;7.90;96.70;;;;;;4992737;28;19936;-75
2023/03/07 12:55:43;;;;;;;4.17;2.53;;;7.80;96.90;;;;;;4998923;28;20727;-73
2023/03/07 12:59:03;;;;;;;4.70;1.45;;;7.80;96.90;;;;;;5006494;28;20030;-75
2023/03/07 13:01:57;;;;;;;5.35;2.50;;;7.80;97.00;;;;;;4958900;28;20136;-75
2023/03/07 13:04:39;;;;;;;3.35;1.98;;;7.70;97.10;;;;;;4978300;28;20042;-74
2023/03/07 13:07:05;;;;;;;4.88;2.25;;;7.70;97.30;;;;;;4999119;28;20117;-74
2023/03/07 13:09:34;;;;;;;4.43;1.70;;;7.70;97.40;;;;;;4991824;28;20054;-74
2023/03/07 13:12:22;;;;;;;5.00;2.90;;;7.60;97.30;;;;;;4992213;28;20026;-74
2023/03/07 13:15:16;;;;;;;3.67;1.88;;;7.50;97.50;;;;;;4992212;28;20030;-74
2023/03/07 13:17:42;;;;;;;10.02;3.00;;;7.50;97.50;;;;;;5000482;23;20415;-73
2023/03/07 13:20:37;;;;;;;5.18;2.15;;;7.60;97.50;;;;;;4970260;28;20030;-72